sensor_id;sensor_type;location;lat;lon;timestamp;P1;durP1;ratioP1;P2;durP2;ratioP2
18072;SDS011;9161;47.348;9.648;2022-12-10T00:03:43;34.27;;;16.27;;
18072;SDS011;9161;47.348;9.648;2022-12-10T00:08:27;31.97;;;15.63;;
18072;SDS011;9161;47.348;9.648;2022-12-10T00:13:11;31.63;;;15.33;;
18072;SDS011;9161;47.348;9.648;2022-12-10T00:17:55;34.23;;;16.27;;
18072;SDS011;9161;47.348;9.648;2022-12-10T00:22:39;34.60;;;17.17;;
18072;SDS011;9161;47.348;9.648;2022-12-10T00:27:23;33.37;;;16.77;;
18072;SDS011;9161;47.348;9.648;2022-12-10T00:32:07;32.37;;;15.77;;
18072;SDS011;9161;47.348;9.648;2022-12-10T00:36:52;37.10;;;17.90;;
18072;SDS011;9161;47.348;9.648;2022-12-10T00:41:35;34.80;;;16.97;;
18072;SDS011;9161;47.348;9.648;2022-12-10T00:46:19;32.10;;;15.67;;
18072;SDS011;9161;47.348;9.648;2022-12-10T00:51:04;29.23;;;14.57;;
18072;SDS011;9161;47.348;9.648;2022-12-10T00:55:50;29.00;;;15.27;;
18072;SDS011;9161;47.348;9.648;2022-12-10T01:00:34;28.53;;;15.23;;
18072;SDS011;9161;47.348;9.648;2022-12-10T01:05:17;30.10;;;15.90;;
18072;SDS011;9161;47.348;9.648;2022-12-10T01:10:01;30.73;;;14.10;;
18072;SDS011;9161;47.348;9.648;2022-12-10T01:14:46;30.20;;;15.80;;
18072;SDS011;9161;47.348;9.648;2022-12-10T01:19:30;35.37;;;16.47;;
18072;SDS011;9161;47.348;9.648;2022-12-10T01:24:14;31.60;;;15.60;;
18072;SDS011;9161;47.348;9.648;2022-12-10T01:28:57;31.03;;;14.07;;
18072;SDS011;9161;47.348;9.648;2022-12-10T01:33:42;27.33;;;14.07;;
18072;SDS011;9161;47.348;9.648;2022-12-10T01:38:26;26.97;;;14.40;;
18072;SDS011;9161;47.348;9.648;2022-12-10T01:43:11;28.37;;;14.60;;
18072;SDS011;9161;47.348;9.648;2022-12-10T01:47:56;29.70;;;14.07;;
18072;SDS011;9161;47.348;9.648;2022-12-10T01:52:49;29.90;;;15.13;;
18072;SDS011;9161;47.348;9.648;2022-12-10T01:57:33;30.40;;;15.23;;
18072;SDS011;9161;47.348;9.648;2022-12-10T02:02:18;35.43;;;15.43;;
18072;SDS011;9161;47.348;9.648;2022-12-10T02:07:09;31.60;;;16.30;;
18072;SDS011;9161;47.348;9.648;2022-12-10T02:12:02;33.60;;;15.30;;
18072;SDS011;9161;47.348;9.648;2022-12-10T02:16:55;31.57;;;14.90;;
18072;SDS011;9161;47.348;9.648;2022-12-10T02:21:41;32.37;;;15.30;;
18072;SDS011;9161;47.348;9.648;2022-12-10T02:26:30;31.00;;;14.90;;
18072;SDS011;9161;47.348;9.648;2022-12-10T02:31:23;31.80;;;14.30;;
18072;SDS011;9161;47.348;9.648;2022-12-10T02:36:11;28.90;;;14.10;;
18072;SDS011;9161;47.348;9.648;2022-12-10T02:40:57;30.27;;;15.00;;
18072;SDS011;9161;47.348;9.648;2022-12-10T02:45:44;32.63;;;14.67;;
18072;SDS011;9161;47.348;9.648;2022-12-10T02:50:30;35.00;;;14.97;;
18072;SDS011;9161;47.348;9.648;2022-12-10T02:55:13;35.03;;;15.37;;
18072;SDS011;9161;47.348;9.648;2022-12-10T03:00:01;31.37;;;15.70;;
18072;SDS011;9161;47.348;9.648;2022-12-10T03:04:52;29.70;;;14.80;;
18072;SDS011;9161;47.348;9.648;2022-12-10T03:09:51;27.73;;;13.47;;
18072;SDS011;9161;47.348;9.648;2022-12-10T03:14:36;28.20;;;14.13;;
18072;SDS011;9161;47.348;9.648;2022-12-10T03:19:21;27.97;;;14.27;;
18072;SDS011;9161;47.348;9.648;2022-12-10T03:24:07;32.73;;;14.33;;
18072;SDS011;9161;47.348;9.648;2022-12-10T03:28:54;27.63;;;14.03;;
18072;SDS011;9161;47.348;9.648;2022-12-10T03:33:42;29.93;;;14.70;;
18072;SDS011;9161;47.348;9.648;2022-12-10T03:38:26;33.37;;;16.60;;
18072;SDS011;9161;47.348;9.648;2022-12-10T03:43:11;32.27;;;15.60;;
18072;SDS011;9161;47.348;9.648;2022-12-10T04:00:03;32.33;;;13.97;;
18072;SDS011;9161;47.348;9.648;2022-12-10T04:04:48;29.10;;;14.67;;
18072;SDS011;9161;47.348;9.648;2022-12-10T04:09:31;30.97;;;15.87;;
18072;SDS011;9161;47.348;9.648;2022-12-10T04:14:14;28.53;;;14.87;;
18072;SDS011;9161;47.348;9.648;2022-12-10T04:19:17;30.33;;;14.63;;
18072;SDS011;9161;47.348;9.648;2022-12-10T04:24:01;29.93;;;15.30;;
18072;SDS011;9161;47.348;9.648;2022-12-10T04:29:02;30.87;;;15.80;;
18072;SDS011;9161;47.348;9.648;2022-12-10T04:33:47;37.27;;;16.07;;
18072;SDS011;9161;47.348;9.648;2022-12-10T04:38:32;28.63;;;14.77;;
18072;SDS011;9161;47.348;9.648;2022-12-10T04:43:16;29.80;;;15.27;;
18072;SDS011;9161;47.348;9.648;2022-12-10T04:47:59;34.70;;;16.50;;
18072;SDS011;9161;47.348;9.648;2022-12-10T04:52:43;34.00;;;16.23;;
18072;SDS011;9161;47.348;9.648;2022-12-10T04:57:28;34.43;;;17.27;;
18072;SDS011;9161;47.348;9.648;2022-12-10T05:02:11;40.43;;;18.60;;
18072;SDS011;9161;47.348;9.648;2022-12-10T05:06:55;41.50;;;17.87;;
18072;SDS011;9161;47.348;9.648;2022-12-10T05:11:39;37.47;;;18.37;;
18072;SDS011;9161;47.348;9.648;2022-12-10T05:16:24;37.80;;;19.03;;
18072;SDS011;9161;47.348;9.648;2022-12-10T05:21:10;39.80;;;17.43;;
18072;SDS011;9161;47.348;9.648;2022-12-10T05:25:58;46.47;;;18.63;;
18072;SDS011;9161;47.348;9.648;2022-12-10T05:30:42;46.23;;;18.20;;
18072;SDS011;9161;47.348;9.648;2022-12-10T05:35:27;35.93;;;17.57;;
18072;SDS011;9161;47.348;9.648;2022-12-10T05:40:11;41.27;;;18.13;;
18072;SDS011;9161;47.348;9.648;2022-12-10T05:44:55;37.23;;;16.43;;
18072;SDS011;9161;47.348;9.648;2022-12-10T05:49:38;36.80;;;17.30;;
18072;SDS011;9161;47.348;9.648;2022-12-10T05:54:23;40.77;;;17.73;;
18072;SDS011;9161;47.348;9.648;2022-12-10T05:59:13;42.07;;;18.30;;
18072;SDS011;9161;47.348;9.648;2022-12-10T06:04:00;37.17;;;17.63;;
18072;SDS011;9161;47.348;9.648;2022-12-10T06:08:45;40.43;;;16.83;;
18072;SDS011;9161;47.348;9.648;2022-12-10T06:13:30;33.63;;;15.57;;
18072;SDS011;9161;47.348;9.648;2022-12-10T06:18:14;29.67;;;14.43;;
18072;SDS011;9161;47.348;9.648;2022-12-10T06:22:57;38.03;;;16.30;;
18072;SDS011;9161;47.348;9.648;2022-12-10T06:27:41;28.50;;;14.90;;
18072;SDS011;9161;47.348;9.648;2022-12-10T06:32:26;34.87;;;16.43;;
18072;SDS011;9161;47.348;9.648;2022-12-10T06:37:10;30.80;;;15.17;;
18072;SDS011;9161;47.348;9.648;2022-12-10T06:41:53;31.60;;;15.03;;
18072;SDS011;9161;47.348;9.648;2022-12-10T06:46:39;33.50;;;15.90;;
18072;SDS011;9161;47.348;9.648;2022-12-10T06:51:25;33.93;;;15.80;;
18072;SDS011;9161;47.348;9.648;2022-12-10T06:56:09;35.50;;;16.63;;
18072;SDS011;9161;47.348;9.648;2022-12-10T07:01:01;30.40;;;14.87;;
18072;SDS011;9161;47.348;9.648;2022-12-10T07:05:45;28.87;;;13.93;;
18072;SDS011;9161;47.348;9.648;2022-12-10T07:10:31;32.60;;;16.10;;
18072;SDS011;9161;47.348;9.648;2022-12-10T07:15:15;30.37;;;15.07;;
18072;SDS011;9161;47.348;9.648;2022-12-10T07:19:58;32.53;;;16.00;;
18072;SDS011;9161;47.348;9.648;2022-12-10T07:24:42;36.27;;;16.90;;
18072;SDS011;9161;47.348;9.648;2022-12-10T07:29:27;31.80;;;16.20;;
18072;SDS011;9161;47.348;9.648;2022-12-10T07:34:11;32.73;;;16.03;;
18072;SDS011;9161;47.348;9.648;2022-12-10T07:38:54;32.83;;;15.27;;
18072;SDS011;9161;47.348;9.648;2022-12-10T07:43:39;33.97;;;15.63;;
18072;SDS011;9161;47.348;9.648;2022-12-10T07:48:24;31.27;;;15.57;;
18072;SDS011;9161;47.348;9.648;2022-12-10T07:53:08;30.73;;;15.10;;
18072;SDS011;9161;47.348;9.648;2022-12-10T07:57:52;37.07;;;15.60;;
18072;SDS011;9161;47.348;9.648;2022-12-10T08:02:36;37.73;;;17.03;;
18072;SDS011;9161;47.348;9.648;2022-12-10T08:07:20;43.30;;;19.50;;
18072;SDS011;9161;47.348;9.648;2022-12-10T08:12:04;30.20;;;15.97;;
18072;SDS011;9161;47.348;9.648;2022-12-10T08:16:48;28.50;;;14.93;;
18072;SDS011;9161;47.348;9.648;2022-12-10T08:21:32;29.10;;;14.67;;
18072;SDS011;9161;47.348;9.648;2022-12-10T08:26:18;30.47;;;15.17;;
18072;SDS011;9161;47.348;9.648;2022-12-10T08:31:03;34.63;;;17.33;;
18072;SDS011;9161;47.348;9.648;2022-12-10T08:35:48;33.20;;;16.67;;
18072;SDS011;9161;47.348;9.648;2022-12-10T08:40:38;33.13;;;16.90;;
18072;SDS011;9161;47.348;9.648;2022-12-10T08:45:23;36.47;;;17.87;;
18072;SDS011;9161;47.348;9.648;2022-12-10T08:50:08;34.37;;;16.67;;
18072;SDS011;9161;47.348;9.648;2022-12-10T08:54:52;37.40;;;18.40;;
18072;SDS011;9161;47.348;9.648;2022-12-10T08:59:35;40.70;;;17.63;;
18072;SDS011;9161;47.348;9.648;2022-12-10T09:04:20;36.23;;;17.97;;
18072;SDS011;9161;47.348;9.648;2022-12-10T09:09:04;35.20;;;17.17;;
18072;SDS011;9161;47.348;9.648;2022-12-10T09:13:48;42.83;;;18.50;;
18072;SDS011;9161;47.348;9.648;2022-12-10T09:18:33;43.40;;;19.10;;
18072;SDS011;9161;47.348;9.648;2022-12-10T09:23:18;39.33;;;18.83;;
18072;SDS011;9161;47.348;9.648;2022-12-10T09:28:01;39.27;;;18.10;;
18072;SDS011;9161;47.348;9.648;2022-12-10T09:32:45;38.07;;;16.97;;
18072;SDS011;9161;47.348;9.648;2022-12-10T09:37:28;42.87;;;18.83;;
18072;SDS011;9161;47.348;9.648;2022-12-10T09:42:16;37.23;;;17.93;;
18072;SDS011;9161;47.348;9.648;2022-12-10T09:47:07;41.70;;;18.67;;
18072;SDS011;9161;47.348;9.648;2022-12-10T09:51:54;41.20;;;19.07;;
18072;SDS011;9161;47.348;9.648;2022-12-10T09:56:40;41.53;;;18.53;;
18072;SDS011;9161;47.348;9.648;2022-12-10T10:01:27;41.43;;;17.93;;
18072;SDS011;9161;47.348;9.648;2022-12-10T10:06:13;37.93;;;17.63;;
18072;SDS011;9161;47.348;9.648;2022-12-10T10:10:57;40.23;;;17.80;;
18072;SDS011;9161;47.348;9.648;2022-12-10T10:15:43;42.97;;;19.37;;
18072;SDS011;9161;47.348;9.648;2022-12-10T10:20:29;38.90;;;17.80;;
18072;SDS011;9161;47.348;9.648;2022-12-10T10:25:13;39.47;;;17.37;;
18072;SDS011;9161;47.348;9.648;2022-12-10T10:29:58;42.43;;;18.27;;
18072;SDS011;9161;47.348;9.648;2022-12-10T10:35:05;40.40;;;17.63;;
18072;SDS011;9161;47.348;9.648;2022-12-10T10:39:51;32.27;;;15.27;;
18072;SDS011;9161;47.348;9.648;2022-12-10T10:44:36;34.20;;;15.50;;
18072;SDS011;9161;47.348;9.648;2022-12-10T10:49:22;32.87;;;15.53;;
18072;SDS011;9161;47.348;9.648;2022-12-10T10:54:08;32.50;;;15.90;;
18072;SDS011;9161;47.348;9.648;2022-12-10T10:58:55;32.70;;;16.07;;
18072;SDS011;9161;47.348;9.648;2022-12-10T11:03:45;31.53;;;15.17;;
18072;SDS011;9161;47.348;9.648;2022-12-10T11:08:30;36.20;;;16.73;;
18072;SDS011;9161;47.348;9.648;2022-12-10T11:13:19;32.97;;;15.87;;
18072;SDS011;9161;47.348;9.648;2022-12-10T11:18:22;27.70;;;14.27;;
18072;SDS011;9161;47.348;9.648;2022-12-10T11:23:09;27.80;;;13.07;;
18072;SDS011;9161;47.348;9.648;2022-12-10T11:27:54;30.77;;;14.37;;
18072;SDS011;9161;47.348;9.648;2022-12-10T11:32:53;26.23;;;13.13;;
18072;SDS011;9161;47.348;9.648;2022-12-10T11:37:50;30.60;;;13.87;;
18072;SDS011;9161;47.348;9.648;2022-12-10T11:42:45;34.10;;;15.20;;
18072;SDS011;9161;47.348;9.648;2022-12-10T11:47:39;38.93;;;17.67;;
18072;SDS011;9161;47.348;9.648;2022-12-10T11:52:36;36.47;;;15.70;;
18072;SDS011;9161;47.348;9.648;2022-12-10T11:57:30;36.70;;;16.80;;
18072;SDS011;9161;47.348;9.648;2022-12-10T12:02:31;38.67;;;17.60;;
18072;SDS011;9161;47.348;9.648;2022-12-10T12:07:33;38.60;;;18.17;;
18072;SDS011;9161;47.348;9.648;2022-12-10T12:12:25;42.83;;;19.13;;
18072;SDS011;9161;47.348;9.648;2022-12-10T12:17:19;38.60;;;18.27;;
18072;SDS011;9161;47.348;9.648;2022-12-10T12:22:07;50.10;;;20.53;;
18072;SDS011;9161;47.348;9.648;2022-12-10T12:26:58;44.63;;;20.20;;
18072;SDS011;9161;47.348;9.648;2022-12-10T12:31:53;39.47;;;18.60;;
18072;SDS011;9161;47.348;9.648;2022-12-10T12:36:40;40.33;;;18.40;;
18072;SDS011;9161;47.348;9.648;2022-12-10T12:41:24;37.33;;;17.53;;
18072;SDS011;9161;47.348;9.648;2022-12-10T12:46:14;34.83;;;17.13;;
18072;SDS011;9161;47.348;9.648;2022-12-10T12:51:05;35.83;;;16.87;;
18072;SDS011;9161;47.348;9.648;2022-12-10T12:55:56;37.43;;;18.17;;
18072;SDS011;9161;47.348;9.648;2022-12-10T13:00:46;44.53;;;19.37;;
18072;SDS011;9161;47.348;9.648;2022-12-10T13:05:34;42.67;;;20.77;;
18072;SDS011;9161;47.348;9.648;2022-12-10T13:10:25;45.03;;;21.47;;
18072;SDS011;9161;47.348;9.648;2022-12-10T13:15:14;47.07;;;21.20;;
18072;SDS011;9161;47.348;9.648;2022-12-10T13:25:16;47.20;;;23.03;;
18072;SDS011;9161;47.348;9.648;2022-12-10T13:30:03;45.13;;;21.37;;
18072;SDS011;9161;47.348;9.648;2022-12-10T13:35:16;41.93;;;18.93;;
18072;SDS011;9161;47.348;9.648;2022-12-10T13:45:24;44.83;;;21.30;;
18072;SDS011;9161;47.348;9.648;2022-12-10T13:50:19;39.77;;;18.63;;
18072;SDS011;9161;47.348;9.648;2022-12-10T13:55:11;41.37;;;19.43;;
18072;SDS011;9161;47.348;9.648;2022-12-10T14:00:14;37.37;;;18.03;;
18072;SDS011;9161;47.348;9.648;2022-12-10T14:10:07;40.00;;;20.00;;
18072;SDS011;9161;47.348;9.648;2022-12-10T14:14:58;43.77;;;19.83;;
18072;SDS011;9161;47.348;9.648;2022-12-10T14:19:47;38.77;;;18.57;;
18072;SDS011;9161;47.348;9.648;2022-12-10T14:24:37;42.00;;;18.70;;
18072;SDS011;9161;47.348;9.648;2022-12-10T14:29:24;37.90;;;17.83;;
18072;SDS011;9161;47.348;9.648;2022-12-10T14:34:10;38.73;;;17.77;;
18072;SDS011;9161;47.348;9.648;2022-12-10T14:38:57;36.83;;;17.73;;
18072;SDS011;9161;47.348;9.648;2022-12-10T14:43:43;35.37;;;16.33;;
18072;SDS011;9161;47.348;9.648;2022-12-10T14:48:28;37.63;;;17.23;;
18072;SDS011;9161;47.348;9.648;2022-12-10T14:53:13;35.63;;;16.57;;
18072;SDS011;9161;47.348;9.648;2022-12-10T14:58:04;36.23;;;17.17;;
18072;SDS011;9161;47.348;9.648;2022-12-10T15:02:54;37.90;;;16.93;;
18072;SDS011;9161;47.348;9.648;2022-12-10T15:07:41;32.40;;;16.10;;
18072;SDS011;9161;47.348;9.648;2022-12-10T15:12:36;36.40;;;17.10;;
18072;SDS011;9161;47.348;9.648;2022-12-10T15:17:39;37.37;;;17.07;;
18072;SDS011;9161;47.348;9.648;2022-12-10T15:22:27;36.97;;;17.23;;
18072;SDS011;9161;47.348;9.648;2022-12-10T15:27:21;28.50;;;13.47;;
18072;SDS011;9161;47.348;9.648;2022-12-10T15:32:11;25.10;;;12.33;;
18072;SDS011;9161;47.348;9.648;2022-12-10T15:37:00;25.60;;;12.57;;
18072;SDS011;9161;47.348;9.648;2022-12-10T15:41:48;25.00;;;12.77;;
18072;SDS011;9161;47.348;9.648;2022-12-10T15:46:37;25.87;;;12.90;;
18072;SDS011;9161;47.348;9.648;2022-12-10T15:51:33;29.57;;;13.97;;
18072;SDS011;9161;47.348;9.648;2022-12-10T15:56:18;28.93;;;13.50;;
18072;SDS011;9161;47.348;9.648;2022-12-10T16:01:05;26.60;;;13.37;;
18072;SDS011;9161;47.348;9.648;2022-12-10T16:05:52;27.07;;;12.57;;
18072;SDS011;9161;47.348;9.648;2022-12-10T16:10:36;29.50;;;13.30;;
18072;SDS011;9161;47.348;9.648;2022-12-10T16:15:23;30.37;;;12.70;;
18072;SDS011;9161;47.348;9.648;2022-12-10T16:20:15;28.83;;;12.83;;
18072;SDS011;9161;47.348;9.648;2022-12-10T16:25:03;27.30;;;13.00;;
18072;SDS011;9161;47.348;9.648;2022-12-10T16:29:50;29.30;;;12.73;;
18072;SDS011;9161;47.348;9.648;2022-12-10T16:34:37;29.23;;;13.00;;
18072;SDS011;9161;47.348;9.648;2022-12-10T16:39:32;26.87;;;12.53;;
18072;SDS011;9161;47.348;9.648;2022-12-10T16:44:17;25.50;;;12.27;;
18072;SDS011;9161;47.348;9.648;2022-12-10T16:49:05;28.63;;;13.03;;
18072;SDS011;9161;47.348;9.648;2022-12-10T16:53:49;27.63;;;12.73;;
18072;SDS011;9161;47.348;9.648;2022-12-10T16:58:39;29.03;;;12.23;;
18072;SDS011;9161;47.348;9.648;2022-12-10T17:03:25;30.83;;;12.53;;
18072;SDS011;9161;47.348;9.648;2022-12-10T17:08:12;26.40;;;12.60;;
18072;SDS011;9161;47.348;9.648;2022-12-10T17:13:01;29.67;;;14.03;;
18072;SDS011;9161;47.348;9.648;2022-12-10T17:17:46;27.33;;;12.93;;
18072;SDS011;9161;47.348;9.648;2022-12-10T17:22:31;29.67;;;14.30;;
18072;SDS011;9161;47.348;9.648;2022-12-10T17:27:16;37.93;;;16.50;;
18072;SDS011;9161;47.348;9.648;2022-12-10T17:32:02;34.30;;;14.83;;
18072;SDS011;9161;47.348;9.648;2022-12-10T17:36:48;28.77;;;13.83;;
18072;SDS011;9161;47.348;9.648;2022-12-10T17:41:33;33.43;;;14.63;;
18072;SDS011;9161;47.348;9.648;2022-12-10T17:46:20;39.03;;;16.13;;
18072;SDS011;9161;47.348;9.648;2022-12-10T17:51:06;31.83;;;14.33;;
18072;SDS011;9161;47.348;9.648;2022-12-10T17:55:54;30.77;;;14.53;;
18072;SDS011;9161;47.348;9.648;2022-12-10T18:00:42;30.27;;;13.67;;
18072;SDS011;9161;47.348;9.648;2022-12-10T18:05:27;27.83;;;11.90;;
18072;SDS011;9161;47.348;9.648;2022-12-10T18:10:14;24.63;;;11.10;;
18072;SDS011;9161;47.348;9.648;2022-12-10T18:15:01;22.50;;;10.07;;
18072;SDS011;9161;47.348;9.648;2022-12-10T18:19:45;20.53;;;8.90;;
18072;SDS011;9161;47.348;9.648;2022-12-10T18:24:34;18.90;;;9.23;;
18072;SDS011;9161;47.348;9.648;2022-12-10T18:29:19;16.17;;;8.33;;
18072;SDS011;9161;47.348;9.648;2022-12-10T18:34:05;18.07;;;8.73;;
18072;SDS011;9161;47.348;9.648;2022-12-10T18:38:54;18.00;;;8.47;;
18072;SDS011;9161;47.348;9.648;2022-12-10T18:43:40;24.83;;;10.70;;
18072;SDS011;9161;47.348;9.648;2022-12-10T18:48:24;16.23;;;8.23;;
18072;SDS011;9161;47.348;9.648;2022-12-10T18:53:10;18.03;;;8.40;;
18072;SDS011;9161;47.348;9.648;2022-12-10T18:57:55;19.67;;;8.90;;
18072;SDS011;9161;47.348;9.648;2022-12-10T19:02:47;16.37;;;8.27;;
18072;SDS011;9161;47.348;9.648;2022-12-10T19:07:32;17.87;;;8.30;;
18072;SDS011;9161;47.348;9.648;2022-12-10T19:12:18;19.07;;;8.63;;
18072;SDS011;9161;47.348;9.648;2022-12-10T19:17:04;20.57;;;9.03;;
18072;SDS011;9161;47.348;9.648;2022-12-10T19:21:49;25.50;;;11.07;;
18072;SDS011;9161;47.348;9.648;2022-12-10T19:26:34;17.77;;;8.87;;
18072;SDS011;9161;47.348;9.648;2022-12-10T19:31:21;15.67;;;8.30;;
18072;SDS011;9161;47.348;9.648;2022-12-10T19:36:08;17.23;;;8.90;;
18072;SDS011;9161;47.348;9.648;2022-12-10T19:41:01;15.90;;;8.13;;
18072;SDS011;9161;47.348;9.648;2022-12-10T19:45:47;17.17;;;8.23;;
18072;SDS011;9161;47.348;9.648;2022-12-10T19:50:41;21.53;;;9.77;;
18072;SDS011;9161;47.348;9.648;2022-12-10T19:55:29;25.73;;;11.23;;
18072;SDS011;9161;47.348;9.648;2022-12-10T20:00:16;24.93;;;11.93;;
18072;SDS011;9161;47.348;9.648;2022-12-10T20:05:04;29.80;;;13.07;;
18072;SDS011;9161;47.348;9.648;2022-12-10T20:10:09;37.67;;;16.23;;
18072;SDS011;9161;47.348;9.648;2022-12-10T20:15:03;25.07;;;13.20;;
18072;SDS011;9161;47.348;9.648;2022-12-10T20:19:55;30.07;;;14.77;;
18072;SDS011;9161;47.348;9.648;2022-12-10T20:24:41;25.93;;;12.20;;
18072;SDS011;9161;47.348;9.648;2022-12-10T20:29:28;26.17;;;12.47;;
18072;SDS011;9161;47.348;9.648;2022-12-10T20:34:13;25.57;;;11.43;;
18072;SDS011;9161;47.348;9.648;2022-12-10T20:39:00;26.73;;;12.03;;
18072;SDS011;9161;47.348;9.648;2022-12-10T20:43:46;24.07;;;11.40;;
18072;SDS011;9161;47.348;9.648;2022-12-10T20:48:34;24.47;;;11.23;;
18072;SDS011;9161;47.348;9.648;2022-12-10T20:53:22;25.50;;;12.07;;
18072;SDS011;9161;47.348;9.648;2022-12-10T20:58:07;25.17;;;10.47;;
18072;SDS011;9161;47.348;9.648;2022-12-10T21:02:54;23.90;;;11.47;;
18072;SDS011;9161;47.348;9.648;2022-12-10T21:07:42;28.53;;;13.80;;
18072;SDS011;9161;47.348;9.648;2022-12-10T21:12:28;27.73;;;12.27;;
18072;SDS011;9161;47.348;9.648;2022-12-10T21:17:15;26.57;;;13.30;;
18072;SDS011;9161;47.348;9.648;2022-12-10T21:22:00;31.37;;;14.83;;
18072;SDS011;9161;47.348;9.648;2022-12-10T21:26:47;34.30;;;15.10;;
18072;SDS011;9161;47.348;9.648;2022-12-10T21:31:33;34.53;;;14.57;;
18072;SDS011;9161;47.348;9.648;2022-12-10T21:36:23;31.53;;;14.27;;
18072;SDS011;9161;47.348;9.648;2022-12-10T21:41:09;30.73;;;14.23;;
18072;SDS011;9161;47.348;9.648;2022-12-10T21:46:17;38.53;;;15.33;;
18072;SDS011;9161;47.348;9.648;2022-12-10T21:51:12;37.67;;;15.87;;
18072;SDS011;9161;47.348;9.648;2022-12-10T21:56:12;37.77;;;15.53;;
18072;SDS011;9161;47.348;9.648;2022-12-10T22:00:57;41.20;;;17.07;;
18072;SDS011;9161;47.348;9.648;2022-12-10T22:05:42;36.73;;;16.63;;
18072;SDS011;9161;47.348;9.648;2022-12-10T22:10:27;39.57;;;17.87;;
18072;SDS011;9161;47.348;9.648;2022-12-10T22:15:11;38.63;;;17.17;;
18072;SDS011;9161;47.348;9.648;2022-12-10T22:19:57;42.53;;;19.40;;
18072;SDS011;9161;47.348;9.648;2022-12-10T22:24:43;44.63;;;20.03;;
18072;SDS011;9161;47.348;9.648;2022-12-10T22:29:27;44.40;;;18.77;;
18072;SDS011;9161;47.348;9.648;2022-12-10T22:34:10;41.90;;;18.50;;
18072;SDS011;9161;47.348;9.648;2022-12-10T22:38:54;37.83;;;17.00;;
18072;SDS011;9161;47.348;9.648;2022-12-10T22:43:41;39.50;;;18.07;;
18072;SDS011;9161;47.348;9.648;2022-12-10T22:48:31;39.77;;;17.50;;
18072;SDS011;9161;47.348;9.648;2022-12-10T22:53:15;42.00;;;18.33;;
18072;SDS011;9161;47.348;9.648;2022-12-10T22:58:00;34.23;;;16.10;;
18072;SDS011;9161;47.348;9.648;2022-12-10T23:02:48;38.73;;;17.13;;
18072;SDS011;9161;47.348;9.648;2022-12-10T23:07:32;41.33;;;18.57;;
18072;SDS011;9161;47.348;9.648;2022-12-10T23:12:16;39.67;;;17.47;;
18072;SDS011;9161;47.348;9.648;2022-12-10T23:17:17;39.67;;;17.10;;
18072;SDS011;9161;47.348;9.648;2022-12-10T23:22:01;44.77;;;19.20;;
18072;SDS011;9161;47.348;9.648;2022-12-10T23:26:45;41.63;;;17.37;;
18072;SDS011;9161;47.348;9.648;2022-12-10T23:31:30;40.50;;;18.53;;
18072;SDS011;9161;47.348;9.648;2022-12-10T23:36:13;41.33;;;18.07;;
18072;SDS011;9161;47.348;9.648;2022-12-10T23:40:59;44.20;;;18.97;;
18072;SDS011;9161;47.348;9.648;2022-12-10T23:45:46;38.00;;;17.50;;
18072;SDS011;9161;47.348;9.648;2022-12-10T23:50:30;43.10;;;18.60;;
18072;SDS011;9161;47.348;9.648;2022-12-10T23:55:14;40.90;;;17.87;;
18072;SDS011;9161;47.348;9.648;2022-12-10T23:59:59;44.20;;;19.47;;
